sensor_id;sensor_type;location;lat;lon;timestamp;P1;durP1;ratioP1;P2;durP2;ratioP2
11582;SDS011;34299;50.820;4.548;2022-11-21T00:00:27;4.63;;;1.70;;
11582;SDS011;34299;50.820;4.548;2022-11-21T00:02:56;1.53;;;1.43;;
11582;SDS011;34299;50.820;4.548;2022-11-21T00:05:25;2.33;;;1.27;;
11582;SDS011;34299;50.820;4.548;2022-11-21T00:07:53;4.67;;;1.80;;
11582;SDS011;34299;50.820;4.548;2022-11-21T00:10:20;6.43;;;2.43;;
11582;SDS011;34299;50.820;4.548;2022-11-21T00:12:51;2.13;;;1.67;;
11582;SDS011;34299;50.820;4.548;2022-11-21T00:15:18;2.57;;;1.20;;
11582;SDS011;34299;50.820;4.548;2022-11-21T00:17:46;3.00;;;1.90;;
11582;SDS011;34299;50.820;4.548;2022-11-21T00:20:13;5.47;;;2.37;;
11582;SDS011;34299;50.820;4.548;2022-11-21T00:22:41;3.63;;;1.70;;
11582;SDS011;34299;50.820;4.548;2022-11-21T00:25:09;5.80;;;2.17;;
11582;SDS011;34299;50.820;4.548;2022-11-21T00:27:36;14.63;;;1.83;;
11582;SDS011;34299;50.820;4.548;2022-11-21T00:30:04;3.47;;;2.00;;
11582;SDS011;34299;50.820;4.548;2022-11-21T00:32:31;1.30;;;1.20;;
11582;SDS011;34299;50.820;4.548;2022-11-21T00:34:58;2.10;;;1.90;;
11582;SDS011;34299;50.820;4.548;2022-11-21T00:37:25;3.07;;;2.00;;
11582;SDS011;34299;50.820;4.548;2022-11-21T00:39:54;7.37;;;2.50;;
11582;SDS011;34299;50.820;4.548;2022-11-21T00:42:21;5.37;;;2.17;;
11582;SDS011;34299;50.820;4.548;2022-11-21T00:44:48;2.83;;;1.83;;
11582;SDS011;34299;50.820;4.548;2022-11-21T00:47:15;4.47;;;2.30;;
11582;SDS011;34299;50.820;4.548;2022-11-21T00:49:43;3.97;;;1.73;;
11582;SDS011;34299;50.820;4.548;2022-11-21T00:52:10;6.97;;;2.30;;
11582;SDS011;34299;50.820;4.548;2022-11-21T00:54:37;5.50;;;1.77;;
11582;SDS011;34299;50.820;4.548;2022-11-21T00:57:06;4.00;;;1.63;;
11582;SDS011;34299;50.820;4.548;2022-11-21T00:59:33;4.83;;;2.10;;
11582;SDS011;34299;50.820;4.548;2022-11-21T01:02:00;2.10;;;1.50;;
11582;SDS011;34299;50.820;4.548;2022-11-21T01:04:29;3.53;;;1.80;;
11582;SDS011;34299;50.820;4.548;2022-11-21T01:06:56;2.47;;;1.43;;
11582;SDS011;34299;50.820;4.548;2022-11-21T01:09:24;3.40;;;1.27;;
11582;SDS011;34299;50.820;4.548;2022-11-21T01:11:52;2.70;;;1.57;;
11582;SDS011;34299;50.820;4.548;2022-11-21T01:14:21;4.63;;;1.90;;
11582;SDS011;34299;50.820;4.548;2022-11-21T01:16:48;7.63;;;2.03;;
11582;SDS011;34299;50.820;4.548;2022-11-21T01:19:15;5.33;;;1.60;;
11582;SDS011;34299;50.820;4.548;2022-11-21T01:21:42;3.00;;;1.67;;
11582;SDS011;34299;50.820;4.548;2022-11-21T01:24:10;5.37;;;2.53;;
11582;SDS011;34299;50.820;4.548;2022-11-21T01:26:37;3.33;;;1.80;;
11582;SDS011;34299;50.820;4.548;2022-11-21T01:29:05;2.87;;;1.63;;
11582;SDS011;34299;50.820;4.548;2022-11-21T01:31:34;0.77;;;0.60;;
11582;SDS011;34299;50.820;4.548;2022-11-21T01:34:01;4.23;;;1.47;;
11582;SDS011;34299;50.820;4.548;2022-11-21T01:36:29;2.47;;;1.40;;
11582;SDS011;34299;50.820;4.548;2022-11-21T01:38:57;2.27;;;1.43;;
11582;SDS011;34299;50.820;4.548;2022-11-21T01:41:25;3.50;;;1.57;;
11582;SDS011;34299;50.820;4.548;2022-11-21T01:43:55;2.80;;;1.40;;
11582;SDS011;34299;50.820;4.548;2022-11-21T01:46:22;3.43;;;1.20;;
11582;SDS011;34299;50.820;4.548;2022-11-21T01:48:52;1.87;;;1.57;;
11582;SDS011;34299;50.820;4.548;2022-11-21T01:51:22;5.80;;;1.80;;
11582;SDS011;34299;50.820;4.548;2022-11-21T01:53:51;2.57;;;1.47;;
11582;SDS011;34299;50.820;4.548;2022-11-21T01:56:19;1.67;;;1.40;;
11582;SDS011;34299;50.820;4.548;2022-11-21T01:58:47;1.57;;;1.47;;
11582;SDS011;34299;50.820;4.548;2022-11-21T02:01:15;2.83;;;1.43;;
11582;SDS011;34299;50.820;4.548;2022-11-21T02:03:43;1.43;;;1.23;;
11582;SDS011;34299;50.820;4.548;2022-11-21T02:06:14;2.37;;;0.97;;
11582;SDS011;34299;50.820;4.548;2022-11-21T02:08:41;7.10;;;1.57;;
11582;SDS011;34299;50.820;4.548;2022-11-21T02:11:11;2.20;;;1.23;;
11582;SDS011;34299;50.820;4.548;2022-11-21T02:13:40;1.37;;;1.27;;
11582;SDS011;34299;50.820;4.548;2022-11-21T02:16:07;6.00;;;1.80;;
11582;SDS011;34299;50.820;4.548;2022-11-21T02:18:34;4.67;;;2.53;;
11582;SDS011;34299;50.820;4.548;2022-11-21T02:21:03;2.10;;;1.43;;
11582;SDS011;34299;50.820;4.548;2022-11-21T02:23:34;3.30;;;2.33;;
11582;SDS011;34299;50.820;4.548;2022-11-21T02:26:05;3.43;;;1.67;;
11582;SDS011;34299;50.820;4.548;2022-11-21T02:28:32;4.43;;;1.60;;
11582;SDS011;34299;50.820;4.548;2022-11-21T02:31:00;4.30;;;1.67;;
11582;SDS011;34299;50.820;4.548;2022-11-21T02:33:27;3.90;;;2.20;;
11582;SDS011;34299;50.820;4.548;2022-11-21T02:35:55;4.50;;;1.70;;
11582;SDS011;34299;50.820;4.548;2022-11-21T02:38:24;1.43;;;1.23;;
11582;SDS011;34299;50.820;4.548;2022-11-21T02:40:54;2.53;;;1.60;;
11582;SDS011;34299;50.820;4.548;2022-11-21T02:43:23;1.50;;;1.40;;
11582;SDS011;34299;50.820;4.548;2022-11-21T02:45:52;2.13;;;1.43;;
11582;SDS011;34299;50.820;4.548;2022-11-21T02:48:20;3.10;;;1.73;;
11582;SDS011;34299;50.820;4.548;2022-11-21T02:50:47;2.10;;;1.90;;
11582;SDS011;34299;50.820;4.548;2022-11-21T02:53:15;3.47;;;1.87;;
11582;SDS011;34299;50.820;4.548;2022-11-21T02:55:43;1.60;;;1.50;;
11582;SDS011;34299;50.820;4.548;2022-11-21T02:58:10;2.00;;;1.40;;
11582;SDS011;34299;50.820;4.548;2022-11-21T03:00:39;5.10;;;1.70;;
11582;SDS011;34299;50.820;4.548;2022-11-21T03:03:07;4.20;;;1.43;;
11582;SDS011;34299;50.820;4.548;2022-11-21T03:05:34;5.17;;;1.50;;
11582;SDS011;34299;50.820;4.548;2022-11-21T03:08:01;1.43;;;1.20;;
11582;SDS011;34299;50.820;4.548;2022-11-21T03:10:29;2.13;;;0.93;;
11582;SDS011;34299;50.820;4.548;2022-11-21T03:12:56;2.53;;;1.40;;
11582;SDS011;34299;50.820;4.548;2022-11-21T03:15:26;3.50;;;1.27;;
11582;SDS011;34299;50.820;4.548;2022-11-21T03:17:55;1.10;;;0.80;;
11582;SDS011;34299;50.820;4.548;2022-11-21T03:20:22;2.30;;;1.13;;
11582;SDS011;34299;50.820;4.548;2022-11-21T03:22:49;4.17;;;1.07;;
11582;SDS011;34299;50.820;4.548;2022-11-21T03:25:17;3.17;;;1.60;;
11582;SDS011;34299;50.820;4.548;2022-11-21T03:27:45;1.13;;;1.03;;
11582;SDS011;34299;50.820;4.548;2022-11-21T03:30:12;1.23;;;1.13;;
11582;SDS011;34299;50.820;4.548;2022-11-21T03:32:40;1.77;;;1.63;;
11582;SDS011;34299;50.820;4.548;2022-11-21T03:35:09;2.07;;;0.73;;
11582;SDS011;34299;50.820;4.548;2022-11-21T03:37:36;1.47;;;1.33;;
11582;SDS011;34299;50.820;4.548;2022-11-21T03:40:04;2.97;;;1.70;;
11582;SDS011;34299;50.820;4.548;2022-11-21T03:42:31;6.00;;;1.73;;
11582;SDS011;34299;50.820;4.548;2022-11-21T03:44:59;7.33;;;2.10;;
11582;SDS011;34299;50.820;4.548;2022-11-21T03:47:26;3.70;;;2.10;;
11582;SDS011;34299;50.820;4.548;2022-11-21T03:49:53;5.57;;;2.13;;
11582;SDS011;34299;50.820;4.548;2022-11-21T03:52:21;3.30;;;2.17;;
11582;SDS011;34299;50.820;4.548;2022-11-21T03:54:49;4.43;;;2.07;;
11582;SDS011;34299;50.820;4.548;2022-11-21T03:57:16;5.30;;;2.50;;
11582;SDS011;34299;50.820;4.548;2022-11-21T03:59:43;4.20;;;2.20;;
11582;SDS011;34299;50.820;4.548;2022-11-21T04:02:10;3.97;;;2.27;;
11582;SDS011;34299;50.820;4.548;2022-11-21T04:04:37;4.80;;;2.30;;
11582;SDS011;34299;50.820;4.548;2022-11-21T04:07:04;4.23;;;2.30;;
11582;SDS011;34299;50.820;4.548;2022-11-21T04:09:33;3.53;;;2.10;;
11582;SDS011;34299;50.820;4.548;2022-11-21T04:12:00;3.70;;;2.23;;
11582;SDS011;34299;50.820;4.548;2022-11-21T04:14:27;3.67;;;2.37;;
11582;SDS011;34299;50.820;4.548;2022-11-21T04:16:55;3.40;;;2.40;;
11582;SDS011;34299;50.820;4.548;2022-11-21T04:19:22;9.33;;;2.37;;
11582;SDS011;34299;50.820;4.548;2022-11-21T04:21:49;4.60;;;2.03;;
11582;SDS011;34299;50.820;4.548;2022-11-21T04:24:16;3.67;;;2.13;;
11582;SDS011;34299;50.820;4.548;2022-11-21T04:26:45;5.87;;;1.77;;
11582;SDS011;34299;50.820;4.548;2022-11-21T04:29:12;3.43;;;2.00;;
11582;SDS011;34299;50.820;4.548;2022-11-21T04:31:39;7.40;;;2.37;;
11582;SDS011;34299;50.820;4.548;2022-11-21T04:34:06;5.10;;;2.20;;
11582;SDS011;34299;50.820;4.548;2022-11-21T04:36:33;4.53;;;2.00;;
11582;SDS011;34299;50.820;4.548;2022-11-21T04:39:01;5.03;;;2.07;;
11582;SDS011;34299;50.820;4.548;2022-11-21T04:41:28;4.53;;;1.73;;
11582;SDS011;34299;50.820;4.548;2022-11-21T04:43:56;8.53;;;2.40;;
11582;SDS011;34299;50.820;4.548;2022-11-21T04:46:24;8.03;;;2.77;;
11582;SDS011;34299;50.820;4.548;2022-11-21T04:48:51;2.17;;;1.87;;
11582;SDS011;34299;50.820;4.548;2022-11-21T04:51:18;4.57;;;1.80;;
11582;SDS011;34299;50.820;4.548;2022-11-21T04:53:45;3.70;;;2.10;;
11582;SDS011;34299;50.820;4.548;2022-11-21T04:56:12;3.77;;;1.70;;
11582;SDS011;34299;50.820;4.548;2022-11-21T04:58:40;6.67;;;1.93;;
11582;SDS011;34299;50.820;4.548;2022-11-21T05:01:10;3.10;;;1.63;;
11582;SDS011;34299;50.820;4.548;2022-11-21T05:03:37;6.43;;;1.90;;
11582;SDS011;34299;50.820;4.548;2022-11-21T05:06:04;5.20;;;2.10;;
11582;SDS011;34299;50.820;4.548;2022-11-21T05:08:31;4.07;;;1.87;;
11582;SDS011;34299;50.820;4.548;2022-11-21T05:10:58;2.77;;;1.67;;
11582;SDS011;34299;50.820;4.548;2022-11-21T05:13:43;3.13;;;1.83;;
11582;SDS011;34299;50.820;4.548;2022-11-21T05:16:12;5.67;;;1.97;;
11582;SDS011;34299;50.820;4.548;2022-11-21T05:18:39;6.50;;;1.73;;
11582;SDS011;34299;50.820;4.548;2022-11-21T05:21:06;3.43;;;1.83;;
11582;SDS011;34299;50.820;4.548;2022-11-21T05:23:33;6.30;;;2.33;;
11582;SDS011;34299;50.820;4.548;2022-11-21T05:26:01;4.37;;;1.70;;
11582;SDS011;34299;50.820;4.548;2022-11-21T05:28:28;6.03;;;1.57;;
11582;SDS011;34299;50.820;4.548;2022-11-21T05:30:55;6.20;;;1.50;;
11582;SDS011;34299;50.820;4.548;2022-11-21T05:33:23;6.77;;;1.97;;
11582;SDS011;34299;50.820;4.548;2022-11-21T05:35:51;2.87;;;1.80;;
11582;SDS011;34299;50.820;4.548;2022-11-21T05:38:18;5.27;;;2.30;;
11582;SDS011;34299;50.820;4.548;2022-11-21T05:40:45;4.20;;;1.73;;
11582;SDS011;34299;50.820;4.548;2022-11-21T05:43:12;2.63;;;1.73;;
11582;SDS011;34299;50.820;4.548;2022-11-21T05:45:57;3.27;;;1.70;;
11582;SDS011;34299;50.820;4.548;2022-11-21T05:48:25;4.80;;;1.67;;
11582;SDS011;34299;50.820;4.548;2022-11-21T05:50:53;4.23;;;1.90;;
11582;SDS011;34299;50.820;4.548;2022-11-21T05:53:20;5.10;;;2.20;;
11582;SDS011;34299;50.820;4.548;2022-11-21T05:55:47;5.83;;;2.53;;
11582;SDS011;34299;50.820;4.548;2022-11-21T05:58:15;6.37;;;1.97;;
11582;SDS011;34299;50.820;4.548;2022-11-21T06:00:42;4.47;;;1.80;;
11582;SDS011;34299;50.820;4.548;2022-11-21T06:03:10;4.13;;;1.60;;
11582;SDS011;34299;50.820;4.548;2022-11-21T06:05:56;5.57;;;2.00;;
11582;SDS011;34299;50.820;4.548;2022-11-21T06:08:23;2.20;;;1.50;;
11582;SDS011;34299;50.820;4.548;2022-11-21T06:10:51;3.93;;;1.87;;
11582;SDS011;34299;50.820;4.548;2022-11-21T06:13:18;5.87;;;1.73;;
11582;SDS011;34299;50.820;4.548;2022-11-21T06:15:52;4.07;;;1.90;;
11582;SDS011;34299;50.820;4.548;2022-11-21T06:18:21;4.43;;;1.63;;
11582;SDS011;34299;50.820;4.548;2022-11-21T06:20:48;3.40;;;1.57;;
11582;SDS011;34299;50.820;4.548;2022-11-21T06:23:16;5.73;;;1.97;;
11582;SDS011;34299;50.820;4.548;2022-11-21T06:25:44;5.73;;;1.50;;
11582;SDS011;34299;50.820;4.548;2022-11-21T06:28:11;6.63;;;1.93;;
11582;SDS011;34299;50.820;4.548;2022-11-21T06:30:38;2.83;;;1.63;;
11582;SDS011;34299;50.820;4.548;2022-11-21T06:33:05;3.70;;;2.13;;
11582;SDS011;34299;50.820;4.548;2022-11-21T06:35:35;3.90;;;1.63;;
11582;SDS011;34299;50.820;4.548;2022-11-21T06:38:03;4.90;;;1.67;;
11582;SDS011;34299;50.820;4.548;2022-11-21T06:40:32;6.13;;;2.00;;
11582;SDS011;34299;50.820;4.548;2022-11-21T06:42:59;6.90;;;2.70;;
11582;SDS011;34299;50.820;4.548;2022-11-21T06:45:26;7.67;;;2.37;;
11582;SDS011;34299;50.820;4.548;2022-11-21T06:47:53;5.63;;;1.87;;
11582;SDS011;34299;50.820;4.548;2022-11-21T06:50:21;2.30;;;1.83;;
11582;SDS011;34299;50.820;4.548;2022-11-21T06:52:48;6.97;;;2.43;;
11582;SDS011;34299;50.820;4.548;2022-11-21T06:55:15;6.53;;;2.50;;
11582;SDS011;34299;50.820;4.548;2022-11-21T06:57:44;5.60;;;2.70;;
11582;SDS011;34299;50.820;4.548;2022-11-21T07:00:11;9.43;;;2.00;;
11582;SDS011;34299;50.820;4.548;2022-11-21T07:02:39;6.87;;;2.30;;
11582;SDS011;34299;50.820;4.548;2022-11-21T07:05:06;6.77;;;1.83;;
11582;SDS011;34299;50.820;4.548;2022-11-21T07:07:33;5.03;;;2.20;;
11582;SDS011;34299;50.820;4.548;2022-11-21T07:10:00;11.17;;;2.00;;
11582;SDS011;34299;50.820;4.548;2022-11-21T07:12:27;5.37;;;2.00;;
11582;SDS011;34299;50.820;4.548;2022-11-21T07:15:14;5.37;;;2.23;;
11582;SDS011;34299;50.820;4.548;2022-11-21T07:17:41;5.37;;;2.27;;
11582;SDS011;34299;50.820;4.548;2022-11-21T07:20:09;5.00;;;2.37;;
11582;SDS011;34299;50.820;4.548;2022-11-21T07:22:36;5.80;;;2.80;;
11582;SDS011;34299;50.820;4.548;2022-11-21T07:25:03;6.53;;;3.17;;
11582;SDS011;34299;50.820;4.548;2022-11-21T07:27:31;6.00;;;2.33;;
11582;SDS011;34299;50.820;4.548;2022-11-21T07:29:58;9.73;;;3.00;;
11582;SDS011;34299;50.820;4.548;2022-11-21T07:32:27;6.87;;;3.20;;
11582;SDS011;34299;50.820;4.548;2022-11-21T07:34:54;8.23;;;3.40;;
11582;SDS011;34299;50.820;4.548;2022-11-21T07:37:21;8.13;;;3.00;;
11582;SDS011;34299;50.820;4.548;2022-11-21T07:39:48;7.30;;;3.57;;
11582;SDS011;34299;50.820;4.548;2022-11-21T07:42:15;9.83;;;3.10;;
11582;SDS011;34299;50.820;4.548;2022-11-21T07:44:42;11.03;;;3.13;;
11582;SDS011;34299;50.820;4.548;2022-11-21T07:47:10;9.50;;;3.43;;
11582;SDS011;34299;50.820;4.548;2022-11-21T07:49:38;5.10;;;2.60;;
11582;SDS011;34299;50.820;4.548;2022-11-21T07:52:05;5.37;;;2.80;;
11582;SDS011;34299;50.820;4.548;2022-11-21T07:54:32;5.33;;;3.27;;
11582;SDS011;34299;50.820;4.548;2022-11-21T07:57:00;5.40;;;3.00;;
11582;SDS011;34299;50.820;4.548;2022-11-21T07:59:27;8.03;;;2.77;;
11582;SDS011;34299;50.820;4.548;2022-11-21T08:01:54;7.07;;;2.80;;
11582;SDS011;34299;50.820;4.548;2022-11-21T08:04:21;7.47;;;3.10;;
11582;SDS011;34299;50.820;4.548;2022-11-21T08:06:50;5.27;;;2.47;;
11582;SDS011;34299;50.820;4.548;2022-11-21T08:09:17;9.30;;;3.40;;
11582;SDS011;34299;50.820;4.548;2022-11-21T08:11:44;6.47;;;2.13;;
11582;SDS011;34299;50.820;4.548;2022-11-21T08:14:11;5.13;;;2.10;;
11582;SDS011;34299;50.820;4.548;2022-11-21T08:16:38;6.00;;;2.40;;
11582;SDS011;34299;50.820;4.548;2022-11-21T08:19:05;5.60;;;2.43;;
11582;SDS011;34299;50.820;4.548;2022-11-21T08:21:33;5.83;;;2.43;;
11582;SDS011;34299;50.820;4.548;2022-11-21T08:24:01;3.93;;;1.90;;
11582;SDS011;34299;50.820;4.548;2022-11-21T08:26:29;8.53;;;2.50;;
11582;SDS011;34299;50.820;4.548;2022-11-21T08:28:56;6.43;;;2.57;;
11582;SDS011;34299;50.820;4.548;2022-11-21T08:31:23;5.80;;;2.47;;
11582;SDS011;34299;50.820;4.548;2022-11-21T08:33:54;9.20;;;2.40;;
11582;SDS011;34299;50.820;4.548;2022-11-21T08:36:21;5.10;;;3.37;;
11582;SDS011;34299;50.820;4.548;2022-11-21T08:38:48;6.37;;;2.90;;
11582;SDS011;34299;50.820;4.548;2022-11-21T08:41:16;7.70;;;3.30;;
11582;SDS011;34299;50.820;4.548;2022-11-21T08:44:01;7.03;;;2.60;;
11582;SDS011;34299;50.820;4.548;2022-11-21T08:46:28;6.17;;;3.33;;
11582;SDS011;34299;50.820;4.548;2022-11-21T08:48:57;7.90;;;3.00;;
11582;SDS011;34299;50.820;4.548;2022-11-21T08:51:25;10.80;;;2.50;;
11582;SDS011;34299;50.820;4.548;2022-11-21T08:53:52;6.03;;;2.70;;
11582;SDS011;34299;50.820;4.548;2022-11-21T08:56:20;1.40;;;1.20;;
11582;SDS011;34299;50.820;4.548;2022-11-21T08:58:48;3.90;;;0.97;;
11582;SDS011;34299;50.820;4.548;2022-11-21T09:01:15;3.57;;;2.77;;
11582;SDS011;34299;50.820;4.548;2022-11-21T09:03:42;6.50;;;2.00;;
11582;SDS011;34299;50.820;4.548;2022-11-21T09:06:09;6.57;;;1.30;;
11582;SDS011;34299;50.820;4.548;2022-11-21T09:08:37;4.23;;;2.00;;
11582;SDS011;34299;50.820;4.548;2022-11-21T09:11:05;4.90;;;2.07;;
11582;SDS011;34299;50.820;4.548;2022-11-21T09:13:34;2.67;;;2.17;;
11582;SDS011;34299;50.820;4.548;2022-11-21T09:16:01;4.33;;;2.40;;
11582;SDS011;34299;50.820;4.548;2022-11-21T09:18:47;3.97;;;2.83;;
11582;SDS011;34299;50.820;4.548;2022-11-21T09:21:14;2.43;;;2.03;;
11582;SDS011;34299;50.820;4.548;2022-11-21T09:23:41;3.53;;;2.77;;
11582;SDS011;34299;50.820;4.548;2022-11-21T09:26:09;5.37;;;2.97;;
11582;SDS011;34299;50.820;4.548;2022-11-21T09:28:39;3.83;;;2.57;;
11582;SDS011;34299;50.820;4.548;2022-11-21T09:31:06;7.33;;;2.70;;
11582;SDS011;34299;50.820;4.548;2022-11-21T09:33:34;8.77;;;3.97;;
11582;SDS011;34299;50.820;4.548;2022-11-21T09:36:01;6.57;;;3.57;;
11582;SDS011;34299;50.820;4.548;2022-11-21T09:38:29;4.63;;;3.60;;
11582;SDS011;34299;50.820;4.548;2022-11-21T09:40:59;5.13;;;3.70;;
11582;SDS011;34299;50.820;4.548;2022-11-21T09:43:49;5.63;;;2.73;;
11582;SDS011;34299;50.820;4.548;2022-11-21T09:46:20;4.77;;;2.90;;
11582;SDS011;34299;50.820;4.548;2022-11-21T09:48:53;7.50;;;3.07;;
11582;SDS011;34299;50.820;4.548;2022-11-21T09:51:22;4.83;;;2.53;;
11582;SDS011;34299;50.820;4.548;2022-11-21T09:53:51;4.07;;;3.00;;
11582;SDS011;34299;50.820;4.548;2022-11-21T09:56:21;5.47;;;3.60;;
11582;SDS011;34299;50.820;4.548;2022-11-21T09:58:54;4.23;;;2.80;;
11582;SDS011;34299;50.820;4.548;2022-11-21T10:01:24;4.20;;;2.63;;
11582;SDS011;34299;50.820;4.548;2022-11-21T10:03:52;5.63;;;3.13;;
11582;SDS011;34299;50.820;4.548;2022-11-21T10:06:20;5.70;;;3.60;;
11582;SDS011;34299;50.820;4.548;2022-11-21T10:08:51;7.77;;;3.03;;
11582;SDS011;34299;50.820;4.548;2022-11-21T10:11:23;4.13;;;3.03;;
11582;SDS011;34299;50.820;4.548;2022-11-21T10:13:56;4.33;;;3.13;;
11582;SDS011;34299;50.820;4.548;2022-11-21T10:16:26;3.60;;;2.20;;
11582;SDS011;34299;50.820;4.548;2022-11-21T10:19:11;5.43;;;2.87;;
11582;SDS011;34299;50.820;4.548;2022-11-21T10:21:57;5.27;;;2.30;;
11582;SDS011;34299;50.820;4.548;2022-11-21T10:24:33;4.80;;;3.20;;
11582;SDS011;34299;50.820;4.548;2022-11-21T10:27:05;2.33;;;2.13;;
11582;SDS011;34299;50.820;4.548;2022-11-21T10:29:38;4.73;;;2.80;;
11582;SDS011;34299;50.820;4.548;2022-11-21T10:32:10;5.90;;;3.00;;
11582;SDS011;34299;50.820;4.548;2022-11-21T10:34:39;3.43;;;2.00;;
11582;SDS011;34299;50.820;4.548;2022-11-21T10:37:09;5.77;;;2.93;;
11582;SDS011;34299;50.820;4.548;2022-11-21T10:39:38;5.53;;;2.27;;
11582;SDS011;34299;50.820;4.548;2022-11-21T10:42:10;4.40;;;2.87;;
11582;SDS011;34299;50.820;4.548;2022-11-21T10:44:39;6.43;;;3.30;;
11582;SDS011;34299;50.820;4.548;2022-11-21T10:47:29;4.70;;;2.03;;
11582;SDS011;34299;50.820;4.548;2022-11-21T10:49:58;3.73;;;2.57;;
11582;SDS011;34299;50.820;4.548;2022-11-21T10:52:30;2.30;;;2.10;;
11582;SDS011;34299;50.820;4.548;2022-11-21T10:55:01;4.17;;;3.43;;
11582;SDS011;34299;50.820;4.548;2022-11-21T10:57:28;5.87;;;3.53;;
11582;SDS011;34299;50.820;4.548;2022-11-21T10:59:58;3.53;;;2.37;;
11582;SDS011;34299;50.820;4.548;2022-11-21T11:02:26;5.10;;;2.30;;
11582;SDS011;34299;50.820;4.548;2022-11-21T11:07:38;9.37;;;2.77;;
11582;SDS011;34299;50.820;4.548;2022-11-21T11:10:20;6.03;;;3.57;;
11582;SDS011;34299;50.820;4.548;2022-11-21T11:12:48;5.63;;;3.60;;
11582;SDS011;34299;50.820;4.548;2022-11-21T11:15:35;5.10;;;3.87;;
11582;SDS011;34299;50.820;4.548;2022-11-21T11:18:03;4.63;;;2.90;;
11582;SDS011;34299;50.820;4.548;2022-11-21T11:20:35;4.00;;;2.97;;
11582;SDS011;34299;50.820;4.548;2022-11-21T11:23:16;5.83;;;3.20;;
11582;SDS011;34299;50.820;4.548;2022-11-21T11:25:46;4.47;;;2.53;;
11582;SDS011;34299;50.820;4.548;2022-11-21T11:28:14;8.67;;;3.63;;
11582;SDS011;34299;50.820;4.548;2022-11-21T11:30:45;9.87;;;2.80;;
11582;SDS011;34299;50.820;4.548;2022-11-21T11:33:32;5.20;;;2.80;;
11582;SDS011;34299;50.820;4.548;2022-11-21T11:36:03;3.90;;;2.47;;
11582;SDS011;34299;50.820;4.548;2022-11-21T11:38:34;5.80;;;3.37;;
11582;SDS011;34299;50.820;4.548;2022-11-21T11:41:02;3.80;;;2.93;;
11582;SDS011;34299;50.820;4.548;2022-11-21T11:43:32;3.90;;;2.50;;
11582;SDS011;34299;50.820;4.548;2022-11-21T11:46:25;4.50;;;2.83;;
11582;SDS011;34299;50.820;4.548;2022-11-21T11:49:14;7.20;;;3.37;;
11582;SDS011;34299;50.820;4.548;2022-11-21T11:51:43;4.97;;;2.67;;
11582;SDS011;34299;50.820;4.548;2022-11-21T11:54:12;8.90;;;2.90;;
11582;SDS011;34299;50.820;4.548;2022-11-21T11:56:41;5.63;;;2.90;;
11582;SDS011;34299;50.820;4.548;2022-11-21T11:59:11;6.90;;;3.00;;
11582;SDS011;34299;50.820;4.548;2022-11-21T12:01:41;11.97;;;3.13;;
11582;SDS011;34299;50.820;4.548;2022-11-21T12:04:10;6.13;;;2.40;;
11582;SDS011;34299;50.820;4.548;2022-11-21T12:06:40;2.43;;;2.00;;
11582;SDS011;34299;50.820;4.548;2022-11-21T12:09:11;7.30;;;2.80;;
11582;SDS011;34299;50.820;4.548;2022-11-21T12:11:44;4.17;;;2.60;;
11582;SDS011;34299;50.820;4.548;2022-11-21T12:14:38;4.20;;;2.43;;
11582;SDS011;34299;50.820;4.548;2022-11-21T12:17:29;4.70;;;2.63;;
11582;SDS011;34299;50.820;4.548;2022-11-21T12:19:57;7.23;;;2.83;;
11582;SDS011;34299;50.820;4.548;2022-11-21T12:22:24;3.90;;;1.90;;
11582;SDS011;34299;50.820;4.548;2022-11-21T12:24:51;4.93;;;2.70;;
11582;SDS011;34299;50.820;4.548;2022-11-21T12:27:26;4.77;;;1.97;;
11582;SDS011;34299;50.820;4.548;2022-11-21T12:29:57;5.40;;;2.07;;
11582;SDS011;34299;50.820;4.548;2022-11-21T12:32:36;5.97;;;2.23;;
11582;SDS011;34299;50.820;4.548;2022-11-21T12:35:14;5.40;;;2.60;;
11582;SDS011;34299;50.820;4.548;2022-11-21T12:37:46;6.70;;;2.70;;
11582;SDS011;34299;50.820;4.548;2022-11-21T12:40:19;3.43;;;2.10;;
11582;SDS011;34299;50.820;4.548;2022-11-21T12:42:53;8.40;;;2.50;;
11582;SDS011;34299;50.820;4.548;2022-11-21T12:45:29;5.43;;;2.63;;
11582;SDS011;34299;50.820;4.548;2022-11-21T12:51:04;9.07;;;3.73;;
11582;SDS011;34299;50.820;4.548;2022-11-21T12:53:52;8.20;;;3.57;;
11582;SDS011;34299;50.820;4.548;2022-11-21T12:56:41;7.47;;;3.00;;
11582;SDS011;34299;50.820;4.548;2022-11-21T12:59:11;5.03;;;2.93;;
11582;SDS011;34299;50.820;4.548;2022-11-21T13:01:42;7.70;;;3.07;;
11582;SDS011;34299;50.820;4.548;2022-11-21T13:04:13;8.23;;;3.53;;
11582;SDS011;34299;50.820;4.548;2022-11-21T13:06:43;6.53;;;2.93;;
11582;SDS011;34299;50.820;4.548;2022-11-21T13:09:12;7.57;;;2.63;;
11582;SDS011;34299;50.820;4.548;2022-11-21T13:11:43;7.67;;;3.17;;
11582;SDS011;34299;50.820;4.548;2022-11-21T13:14:30;6.97;;;3.37;;
11582;SDS011;34299;50.820;4.548;2022-11-21T13:17:05;8.00;;;2.50;;
11582;SDS011;34299;50.820;4.548;2022-11-21T13:19:35;6.53;;;2.30;;
11582;SDS011;34299;50.820;4.548;2022-11-21T13:22:04;8.33;;;2.30;;
11582;SDS011;34299;50.820;4.548;2022-11-21T13:24:57;2.70;;;2.47;;
11582;SDS011;34299;50.820;4.548;2022-11-21T13:27:25;8.03;;;3.40;;
11582;SDS011;34299;50.820;4.548;2022-11-21T13:32:40;5.07;;;2.07;;
11582;SDS011;34299;50.820;4.548;2022-11-21T13:38:01;6.13;;;2.30;;
11582;SDS011;34299;50.820;4.548;2022-11-21T13:40:33;2.70;;;1.80;;
11582;SDS011;34299;50.820;4.548;2022-11-21T13:43:20;3.10;;;2.00;;
11582;SDS011;34299;50.820;4.548;2022-11-21T13:45:48;5.20;;;2.00;;
11582;SDS011;34299;50.820;4.548;2022-11-21T13:48:25;3.00;;;1.30;;
11582;SDS011;34299;50.820;4.548;2022-11-21T13:53:59;2.47;;;1.20;;
11582;SDS011;34299;50.820;4.548;2022-11-21T13:56:33;3.50;;;1.90;;
11582;SDS011;34299;50.820;4.548;2022-11-21T13:59:08;3.37;;;1.43;;
11582;SDS011;34299;50.820;4.548;2022-11-21T14:01:52;2.83;;;1.40;;
11582;SDS011;34299;50.820;4.548;2022-11-21T14:04:32;2.20;;;1.57;;
11582;SDS011;34299;50.820;4.548;2022-11-21T14:07:23;3.67;;;2.03;;
11582;SDS011;34299;50.820;4.548;2022-11-21T14:09:52;3.17;;;1.47;;
11582;SDS011;34299;50.820;4.548;2022-11-21T14:12:21;3.63;;;1.83;;
11582;SDS011;34299;50.820;4.548;2022-11-21T14:14:50;6.63;;;2.53;;
11582;SDS011;34299;50.820;4.548;2022-11-21T14:17:25;4.47;;;1.80;;
11582;SDS011;34299;50.820;4.548;2022-11-21T14:19:54;5.73;;;1.83;;
11582;SDS011;34299;50.820;4.548;2022-11-21T14:22:23;1.67;;;1.57;;
11582;SDS011;34299;50.820;4.548;2022-11-21T14:24:53;2.10;;;1.43;;
11582;SDS011;34299;50.820;4.548;2022-11-21T14:27:23;2.50;;;1.47;;
11582;SDS011;34299;50.820;4.548;2022-11-21T14:29:52;4.03;;;1.60;;
11582;SDS011;34299;50.820;4.548;2022-11-21T14:32:24;5.33;;;2.33;;
11582;SDS011;34299;50.820;4.548;2022-11-21T14:34:52;1.80;;;1.40;;
11582;SDS011;34299;50.820;4.548;2022-11-21T14:37:19;4.03;;;1.70;;
11582;SDS011;34299;50.820;4.548;2022-11-21T14:39:46;3.30;;;1.53;;
11582;SDS011;34299;50.820;4.548;2022-11-21T14:42:15;7.13;;;2.07;;
11582;SDS011;34299;50.820;4.548;2022-11-21T14:44:42;6.17;;;1.80;;
11582;SDS011;34299;50.820;4.548;2022-11-21T14:47:13;9.10;;;2.40;;
11582;SDS011;34299;50.820;4.548;2022-11-21T14:49:47;10.80;;;2.33;;
11582;SDS011;34299;50.820;4.548;2022-11-21T14:52:16;6.83;;;2.17;;
11582;SDS011;34299;50.820;4.548;2022-11-21T14:54:45;5.53;;;2.30;;
11582;SDS011;34299;50.820;4.548;2022-11-21T14:57:17;6.50;;;2.20;;
11582;SDS011;34299;50.820;4.548;2022-11-21T14:59:45;1.80;;;1.63;;
11582;SDS011;34299;50.820;4.548;2022-11-21T15:02:13;6.07;;;1.87;;
11582;SDS011;34299;50.820;4.548;2022-11-21T15:04:42;4.83;;;1.77;;
11582;SDS011;34299;50.820;4.548;2022-11-21T15:07:17;1.50;;;1.40;;
11582;SDS011;34299;50.820;4.548;2022-11-21T15:09:44;3.20;;;1.30;;
11582;SDS011;34299;50.820;4.548;2022-11-21T15:12:11;3.63;;;1.87;;
11582;SDS011;34299;50.820;4.548;2022-11-21T15:14:43;7.87;;;1.90;;
11582;SDS011;34299;50.820;4.548;2022-11-21T15:17:12;5.10;;;1.73;;